Stowe, Vermont
Current Conditions -  °F | °C
As of 1:54 PM on Tuesday 27 Jan 2015 (Local Time) from KMVL Reporting Station
Moderate Snow Moderate Snow  
Wind Chill: -9°   Ceiling: 1100
Heat Index:   Visibility: 0.5mi
Dew Point:   Wind: 13mph
Humidity: 77%   Direction: 350°N
Pressure: 29.84"   Gusts: 24mph
Location:  44.47°N, 72.68°W
Report Text: KMVL 271854Z AUTO 35011G21KT 1/2SM SN VV011 M14/M17 A2984 RMK AO2 SLP124 P0002 T11391172 TSNO
Loading
Personal Weather Stations






























Interactive Weather Map New forecast layout! Learn more

10-Day Weather Forecast

Advertisements
Track Severe Weather on mobile